Schedule Details

Flight Number: CPX313
Departure: Chicago/Rockford International Airport (KRFD) at N/A
Arrival: Washington Dulles International Airport (KIAD) at N/A
Route: JOT J60 JERRI NUSMM MGW GIBBZ2


Current Weather Information
KRFD 180654Z 35010KT 1 1/2SM -SN BR OVC028 M07/M09 A3004 RMK AO2 SFC VIS 2 SLP184 P0001 T10671089
KIAD 180652Z 19008KT 10SM -RA BKN007 OVC050 02/01 A2980 RMK AO2 SLP093 P0005 T00220011

Route Map